Time;durP1;ratioP1;P1;durP2;ratioP2;P2;SDS_P1;SDS_P2;PMS_P1;PMS_P2;Temp;Humidity;BMP_temperature;BMP_pressure;BME280_temperature;BME280_humidity;BME280_pressure;Samples;Min_cycle;Max_cycle;Signal;HPM_P1;HPM_P2
2022/02/16 00:00:11;;;;;;;5.93;4.60;;;8.60;99.90;;;;;;5024317;28;20569;-55
2022/02/16 00:02:38;;;;;;;6.70;4.77;;;8.60;99.90;;;;;;5025728;28;20698;-55
2022/02/16 00:05:11;;;;;;;5.23;4.60;;;8.70;99.90;;;;;;5027892;28;20312;-54
2022/02/16 00:07:41;;;;;;;9.43;6.23;;;8.70;99.90;;;;;;5022279;28;20234;-54
2022/02/16 00:10:10;;;;;;;6.73;5.03;;;8.70;99.90;;;;;;5027428;28;20714;-54
2022/02/16 00:12:37;;;;;;;8.07;5.30;;;8.70;99.90;;;;;;5027556;28;20701;-53
2022/02/16 00:15:06;;;;;;;8.10;5.23;;;8.70;99.90;;;;;;5030125;28;20301;-55
2022/02/16 00:17:33;;;;;;;6.20;4.93;;;8.70;99.90;;;;;;5024993;28;20235;-55
2022/02/16 00:20:00;;;;;;;6.43;4.83;;;8.70;99.90;;;;;;5027065;28;20198;-55
2022/02/16 00:22:28;;;;;;;6.30;4.70;;;8.70;99.90;;;;;;5026409;28;20202;-54
2022/02/16 00:24:56;;;;;;;7.07;4.50;;;8.70;99.90;;;;;;5027607;28;20217;-54
2022/02/16 00:27:23;;;;;;;6.10;4.90;;;8.70;99.90;;;;;;5030517;28;20485;-56
2022/02/16 00:29:50;;;;;;;5.03;4.53;;;8.70;99.90;;;;;;5026239;28;20860;-55
2022/02/16 00:32:17;;;;;;;9.03;5.50;;;8.70;99.90;;;;;;5031153;28;20281;-54
2022/02/16 00:34:44;;;;;;;6.57;5.20;;;8.70;99.90;;;;;;5028128;28;20211;-57
2022/02/16 00:37:11;;;;;;;6.53;5.23;;;8.70;99.90;;;;;;5030416;28;20198;-54
2022/02/16 00:39:38;;;;;;;6.40;5.70;;;8.70;99.90;;;;;;5025137;28;20484;-54
2022/02/16 00:42:05;;;;;;;9.63;5.70;;;8.70;99.90;;;;;;5027948;28;20202;-54
2022/02/16 00:44:32;;;;;;;8.47;5.77;;;8.70;99.90;;;;;;5028571;28;20633;-55
2022/02/16 00:46:59;;;;;;;6.50;5.20;;;8.70;99.90;;;;;;5026127;28;20200;-55
2022/02/16 00:49:25;;;;;;;9.90;5.03;;;8.70;99.90;;;;;;5025893;28;20258;-56
2022/02/16 00:51:52;;;;;;;6.03;4.73;;;8.80;99.90;;;;;;5030732;28;20206;-58
2022/02/16 00:54:19;;;;;;;6.37;5.37;;;8.70;99.90;;;;;;5024743;28;20211;-56
2022/02/16 00:56:46;;;;;;;6.80;5.30;;;8.70;99.90;;;;;;5032228;28;20222;-54
2022/02/16 00:59:13;;;;;;;6.53;5.57;;;8.70;99.90;;;;;;5027689;28;20297;-55
2022/02/16 01:01:40;;;;;;;7.77;5.20;;;8.70;99.90;;;;;;5026257;28;20689;-55
2022/02/16 01:04:07;;;;;;;8.00;5.20;;;8.70;99.90;;;;;;5029647;28;20311;-57
2022/02/16 01:06:33;;;;;;;8.30;5.63;;;8.70;99.90;;;;;;5027534;28;20258;-55
2022/02/16 01:09:00;;;;;;;6.97;5.20;;;8.70;99.90;;;;;;5028166;28;20318;-54
2022/02/16 01:11:27;;;;;;;7.27;5.97;;;8.70;99.90;;;;;;5027866;28;20295;-57
2022/02/16 01:13:54;;;;;;;8.60;6.07;;;8.70;99.90;;;;;;5028097;28;20290;-61
2022/02/16 01:16:21;;;;;;;7.00;5.53;;;8.80;99.90;;;;;;5028582;28;20239;-61
2022/02/16 01:18:49;;;;;;;8.50;6.37;;;8.80;99.90;;;;;;5029313;28;20237;-59
2022/02/16 01:21:16;;;;;;;9.00;5.90;;;8.80;99.90;;;;;;5029030;28;20634;-61
2022/02/16 01:23:43;;;;;;;6.70;5.77;;;8.80;99.90;;;;;;5030363;28;20225;-60
2022/02/16 01:26:12;;;;;;;7.80;6.13;;;8.80;99.90;;;;;;5030751;28;20284;-59
2022/02/16 01:28:39;;;;;;;7.90;5.17;;;8.80;99.90;;;;;;5032133;28;20198;-59
2022/02/16 01:31:06;;;;;;;8.57;6.37;;;8.80;99.90;;;;;;5032565;28;20655;-60
2022/02/16 01:33:33;;;;;;;9.40;5.83;;;8.80;99.90;;;;;;5032066;28;20221;-59
2022/02/16 01:36:00;;;;;;;8.23;5.20;;;8.80;99.90;;;;;;5031676;28;20283;-60
2022/02/16 01:38:27;;;;;;;6.57;5.83;;;8.80;99.90;;;;;;5029546;28;20289;-60
2022/02/16 01:40:54;;;;;;;9.10;5.73;;;8.80;99.90;;;;;;5024968;28;20621;-62
2022/02/16 01:43:22;;;;;;;9.13;5.80;;;8.80;99.90;;;;;;5026844;28;20209;-61
2022/02/16 01:45:49;;;;;;;6.87;6.17;;;8.80;99.90;;;;;;5028045;28;20767;-60
2022/02/16 01:48:16;;;;;;;10.53;6.20;;;8.80;99.90;;;;;;5030880;28;20201;-61
2022/02/16 01:50:43;;;;;;;7.53;5.87;;;8.90;99.90;;;;;;5029152;28;20296;-58
2022/02/16 01:53:10;;;;;;;8.77;5.93;;;8.80;99.90;;;;;;5032495;28;20246;-58
2022/02/16 01:55:37;;;;;;;5.60;5.07;;;8.80;99.90;;;;;;5032961;28;20298;-61
2022/02/16 01:58:05;;;;;;;6.23;5.60;;;8.80;99.90;;;;;;5032702;28;20308;-61
2022/02/16 02:00:32;;;;;;;7.67;5.43;;;8.90;99.90;;;;;;5032232;28;20279;-61
2022/02/16 02:02:59;;;;;;;5.77;4.73;;;8.90;99.90;;;;;;5030893;28;20199;-61
2022/02/16 02:05:26;;;;;;;7.67;4.57;;;8.80;99.90;;;;;;5027602;28;20201;-60
2022/02/16 02:07:53;;;;;;;5.17;4.47;;;8.90;99.90;;;;;;5032721;28;20295;-60
2022/02/16 02:10:20;;;;;;;5.23;4.73;;;8.90;99.90;;;;;;5032564;28;20654;-60
2022/02/16 02:12:49;;;;;;;5.40;4.90;;;8.90;99.90;;;;;;5032859;28;20210;-61
2022/02/16 02:15:19;;;;;;;8.13;5.17;;;8.90;99.90;;;;;;5025573;28;20924;-61
2022/02/16 02:17:46;;;;;;;7.30;4.80;;;8.90;99.90;;;;;;5029612;28;20201;-61
2022/02/16 02:20:23;;;;;;;7.97;5.57;;;8.90;99.90;;;;;;5029839;28;20206;-61
2022/02/16 02:22:52;;;;;;;5.30;4.50;;;8.90;99.90;;;;;;5032025;28;20298;-60
2022/02/16 02:25:19;;;;;;;7.47;4.77;;;8.90;99.90;;;;;;5031671;28;20239;-61
2022/02/16 02:27:46;;;;;;;4.60;4.00;;;8.90;99.90;;;;;;5032546;28;20303;-61
2022/02/16 02:30:14;;;;;;;5.83;4.03;;;8.90;99.90;;;;;;5027828;28;20303;-60
2022/02/16 02:32:45;;;;;;;7.50;4.53;;;8.90;99.90;;;;;;5034694;28;20240;-60
2022/02/16 02:35:14;;;;;;;5.37;4.00;;;8.90;99.90;;;;;;5031006;28;20197;-62
2022/02/16 02:37:42;;;;;;;7.57;3.83;;;8.90;99.90;;;;;;5034782;28;20205;-61
2022/02/16 02:40:10;;;;;;;4.60;4.03;;;8.90;99.90;;;;;;5028316;28;20333;-61
2022/02/16 02:42:38;;;;;;;7.33;4.47;;;8.90;99.90;;;;;;5028927;28;20204;-60
2022/02/16 02:45:07;;;;;;;4.63;3.90;;;9.00;99.90;;;;;;5029890;28;20355;-58
2022/02/16 02:47:34;;;;;;;6.77;3.83;;;9.00;99.90;;;;;;5032780;28;20295;-59
2022/02/16 02:50:01;;;;;;;5.53;3.70;;;9.00;99.90;;;;;;5027072;28;20255;-60
2022/02/16 02:52:31;;;;;;;3.60;3.30;;;9.00;99.90;;;;;;5035229;28;20314;-61
2022/02/16 02:54:58;;;;;;;4.83;3.90;;;9.00;99.90;;;;;;5029361;28;20197;-58
2022/02/16 02:57:25;;;;;;;3.27;2.97;;;9.00;99.90;;;;;;5029952;28;20207;-57
2022/02/16 02:59:52;;;;;;;3.90;3.50;;;9.00;99.90;;;;;;5027717;28;20647;-56
2022/02/16 03:02:19;;;;;;;3.50;2.90;;;9.00;99.90;;;;;;5030132;28;20303;-56
2022/02/16 03:04:46;;;;;;;3.53;2.77;;;9.00;99.90;;;;;;5030204;28;20261;-57
2022/02/16 03:07:13;;;;;;;4.17;3.10;;;9.00;99.90;;;;;;5026748;28;20257;-57
2022/02/16 03:09:41;;;;;;;4.07;3.10;;;9.10;99.90;;;;;;5028530;28;20598;-58
2022/02/16 03:12:08;;;;;;;3.30;3.00;;;9.00;99.90;;;;;;5030261;28;20512;-58
2022/02/16 03:14:36;;;;;;;3.40;2.63;;;9.00;99.90;;;;;;5029936;28;20276;-58
2022/02/16 03:17:03;;;;;;;7.40;2.60;;;9.00;99.90;;;;;;5027868;28;20217;-58
2022/02/16 03:19:30;;;;;;;4.17;2.67;;;9.00;99.90;;;;;;5031677;28;20284;-58
2022/02/16 03:21:57;;;;;;;3.80;2.80;;;9.00;99.90;;;;;;5029082;28;20197;-58
2022/02/16 03:24:24;;;;;;;2.73;2.43;;;9.00;99.90;;;;;;5030646;28;20338;-59
2022/02/16 03:26:52;;;;;;;3.17;2.87;;;9.00;99.90;;;;;;5023866;28;20543;-57
2022/02/16 03:29:19;;;;;;;3.13;2.60;;;9.00;99.90;;;;;;5027510;28;20207;-58
2022/02/16 03:31:46;;;;;;;2.80;2.60;;;9.00;99.90;;;;;;5027816;28;20629;-58
2022/02/16 03:34:14;;;;;;;2.43;2.23;;;9.00;99.90;;;;;;5026670;28;20207;-56
2022/02/16 03:36:41;;;;;;;3.10;2.07;;;9.00;99.90;;;;;;5030506;28;20308;-57
2022/02/16 03:39:08;;;;;;;3.67;2.50;;;9.00;99.90;;;;;;5026511;28;20655;-57
2022/02/16 03:41:35;;;;;;;2.43;2.23;;;8.90;99.90;;;;;;5029287;28;20618;-58
2022/02/16 03:44:03;;;;;;;2.80;2.50;;;8.90;99.90;;;;;;5027468;28;20294;-58
2022/02/16 03:46:30;;;;;;;2.53;2.33;;;8.90;99.90;;;;;;5027062;28;20326;-57
2022/02/16 03:48:57;;;;;;;2.63;2.33;;;8.90;99.90;;;;;;5030242;28;20204;-59
2022/02/16 03:51:23;;;;;;;2.67;2.43;;;8.90;99.90;;;;;;5029667;28;20569;-56
2022/02/16 03:53:50;;;;;;;2.57;2.33;;;8.90;99.90;;;;;;5025067;28;20205;-57
2022/02/16 03:56:17;;;;;;;2.37;2.17;;;8.90;99.90;;;;;;5033365;28;20436;-57
2022/02/16 03:58:44;;;;;;;3.87;2.67;;;8.90;99.90;;;;;;5026932;28;20671;-58
2022/02/16 04:01:11;;;;;;;2.57;2.37;;;8.90;99.90;;;;;;5023835;28;20213;-58
2022/02/16 04:03:38;;;;;;;2.33;2.13;;;8.90;99.90;;;;;;5030906;28;20208;-58
2022/02/16 04:06:05;;;;;;;3.17;2.17;;;8.90;99.90;;;;;;5030576;28;20215;-58
2022/02/16 04:08:32;;;;;;;3.63;2.63;;;8.90;99.90;;;;;;5027569;28;20684;-58
2022/02/16 04:10:59;;;;;;;3.67;2.07;;;8.90;99.90;;;;;;5022575;28;20203;-58
2022/02/16 04:13:26;;;;;;;2.33;2.03;;;8.90;99.90;;;;;;5027518;28;20246;-58
2022/02/16 04:15:52;;;;;;;2.40;2.20;;;8.90;99.90;;;;;;5025504;28;20607;-56
2022/02/16 04:18:19;;;;;;;1.80;1.70;;;8.90;99.90;;;;;;5026924;28;20202;-56
2022/02/16 04:20:46;;;;;;;2.30;2.10;;;8.90;99.90;;;;;;5031064;28;20294;-58
2022/02/16 04:23:13;;;;;;;2.23;1.80;;;8.90;99.90;;;;;;5027751;28;20266;-57
2022/02/16 04:25:42;;;;;;;2.60;2.17;;;9.00;99.90;;;;;;5028153;28;20571;-56
2022/02/16 04:28:09;;;;;;;2.43;2.23;;;9.00;99.90;;;;;;5025987;28;20206;-57
2022/02/16 04:30:36;;;;;;;2.70;2.00;;;9.00;99.90;;;;;;5026189;28;20272;-57
2022/02/16 04:33:03;;;;;;;2.73;2.50;;;9.00;99.90;;;;;;5030422;28;20208;-59
2022/02/16 04:35:30;;;;;;;2.70;2.50;;;9.00;99.90;;;;;;5025075;28;20652;-57
2022/02/16 04:37:57;;;;;;;4.13;2.03;;;9.00;99.90;;;;;;5027739;28;20221;-56
2022/02/16 04:40:24;;;;;;;2.40;2.20;;;9.00;99.90;;;;;;5024706;28;20246;-59
2022/02/16 04:42:51;;;;;;;2.30;2.03;;;9.00;99.90;;;;;;5024806;28;20277;-59
2022/02/16 04:45:18;;;;;;;3.10;2.30;;;9.10;99.90;;;;;;5025881;28;20236;-56
2022/02/16 04:47:45;;;;;;;3.10;2.40;;;9.10;99.90;;;;;;5027918;28;20213;-57
2022/02/16 04:50:12;;;;;;;2.53;2.00;;;9.10;99.90;;;;;;5024843;28;20217;-57
2022/02/16 04:52:39;;;;;;;2.60;2.40;;;9.10;99.90;;;;;;5029261;28;20612;-58
2022/02/16 04:55:09;;;;;;;3.50;2.40;;;9.10;99.90;;;;;;5026782;28;20258;-58
2022/02/16 04:57:36;;;;;;;3.10;2.80;;;9.10;99.90;;;;;;5025597;28;20764;-58
2022/02/16 05:00:08;;;;;;;2.80;2.40;;;9.10;99.90;;;;;;5022884;28;20292;-58
2022/02/16 05:02:37;;;;;;;2.90;2.50;;;9.10;99.90;;;;;;5027996;28;20198;-58
2022/02/16 05:05:04;;;;;;;2.60;2.40;;;9.10;99.90;;;;;;5024602;28;20196;-58
2022/02/16 05:07:32;;;;;;;4.37;2.63;;;9.10;99.90;;;;;;5026965;28;20250;-58
2022/02/16 05:09:58;;;;;;;6.20;3.20;;;9.10;99.90;;;;;;5024276;28;20318;-58
2022/02/16 05:12:26;;;;;;;4.20;3.33;;;9.10;99.90;;;;;;5028719;28;20221;-63
2022/02/16 05:14:53;;;;;;;3.67;3.17;;;9.10;99.90;;;;;;5030258;28;20345;-57
2022/02/16 05:17:19;;;;;;;3.70;3.07;;;9.10;99.90;;;;;;5027707;28;20716;-57
2022/02/16 05:19:46;;;;;;;4.33;3.00;;;9.10;99.90;;;;;;5022384;28;20942;-57
2022/02/16 05:22:13;;;;;;;3.80;3.00;;;9.10;99.90;;;;;;5030682;28;20206;-57
2022/02/16 05:24:41;;;;;;;3.67;3.33;;;9.10;99.90;;;;;;5030654;28;20601;-58
2022/02/16 05:27:08;;;;;;;3.90;3.13;;;9.10;99.90;;;;;;5026510;28;20254;-58
2022/02/16 05:29:35;;;;;;;3.27;2.97;;;9.10;99.90;;;;;;5022160;28;20207;-59
2022/02/16 05:32:02;;;;;;;3.90;2.93;;;9.10;99.90;;;;;;5028249;28;20740;-56
2022/02/16 05:34:29;;;;;;;2.57;2.30;;;9.20;99.90;;;;;;5027375;28;20557;-57
2022/02/16 05:36:56;;;;;;;4.60;2.70;;;9.20;99.90;;;;;;5024183;28;20217;-57
2022/02/16 05:39:23;;;;;;;2.30;2.10;;;9.20;99.90;;;;;;5021345;28;20715;-58
2022/02/16 05:41:52;;;;;;;3.70;2.80;;;9.20;99.90;;;;;;5025851;28;20631;-58
2022/02/16 05:44:19;;;;;;;4.13;2.67;;;9.20;99.90;;;;;;5024483;28;20240;-58
2022/02/16 05:46:46;;;;;;;2.30;2.10;;;9.20;99.90;;;;;;5024886;28;20673;-57
2022/02/16 05:49:13;;;;;;;1.83;1.70;;;9.20;99.90;;;;;;5029237;28;20241;-57
2022/02/16 05:51:40;;;;;;;2.50;2.27;;;9.20;99.90;;;;;;5022644;28;20293;-57
2022/02/16 05:54:06;;;;;;;2.50;1.80;;;9.20;99.90;;;;;;5024559;28;20268;-58
2022/02/16 05:56:33;;;;;;;1.90;1.80;;;9.20;99.90;;;;;;5024751;28;20248;-59
2022/02/16 05:59:00;;;;;;;2.33;2.00;;;9.30;99.90;;;;;;5025238;28;20296;-59
2022/02/16 06:01:27;;;;;;;1.87;1.77;;;9.30;99.90;;;;;;5021373;28;20213;-57
2022/02/16 06:03:54;;;;;;;2.47;1.90;;;9.30;99.90;;;;;;5026869;28;20686;-59
2022/02/16 06:06:21;;;;;;;2.03;1.83;;;9.30;99.90;;;;;;5029714;28;20663;-56
2022/02/16 06:08:48;;;;;;;2.20;2.00;;;9.30;99.90;;;;;;5030602;28;20202;-57
2022/02/16 06:11:15;;;;;;;2.43;2.10;;;9.30;99.90;;;;;;5030333;28;20740;-57
2022/02/16 06:13:42;;;;;;;2.03;1.77;;;9.40;99.90;;;;;;5031395;28;20200;-57
2022/02/16 06:16:09;;;;;;;1.67;1.57;;;9.40;99.90;;;;;;5030979;28;20263;-57
2022/02/16 06:18:36;;;;;;;1.73;1.53;;;9.40;99.90;;;;;;5031103;28;20199;-57
2022/02/16 06:21:05;;;;;;;1.57;1.47;;;9.40;99.90;;;;;;5033418;28;20208;-57
2022/02/16 06:23:31;;;;;;;1.90;1.60;;;9.40;99.90;;;;;;5027486;28;20215;-57
2022/02/16 06:25:58;;;;;;;1.90;1.60;;;9.40;99.90;;;;;;5032779;28;20308;-57
2022/02/16 06:28:25;;;;;;;2.93;1.70;;;9.40;99.90;;;;;;5031354;28;20764;-57
2022/02/16 06:30:52;;;;;;;2.70;1.73;;;9.50;99.90;;;;;;5030444;28;20713;-58
2022/02/16 06:33:19;;;;;;;2.70;1.67;;;9.50;99.90;;;;;;5030201;28;20213;-57
2022/02/16 06:35:46;;;;;;;1.93;1.40;;;9.50;99.90;;;;;;5032475;28;20569;-57
2022/02/16 06:38:13;;;;;;;1.70;1.57;;;9.50;99.90;;;;;;5027291;28;20218;-58
2022/02/16 06:40:40;;;;;;;1.50;1.40;;;9.50;99.90;;;;;;5030282;28;20232;-56
2022/02/16 06:43:07;;;;;;;1.57;1.40;;;9.50;99.90;;;;;;5032817;28;20193;-59
2022/02/16 06:45:34;;;;;;;2.07;1.87;;;9.50;99.90;;;;;;5029345;28;20316;-58
2022/02/16 06:48:00;;;;;;;1.83;1.50;;;9.50;99.90;;;;;;5029845;28;20629;-58
2022/02/16 06:50:27;;;;;;;1.80;1.60;;;9.60;99.90;;;;;;5026981;28;20199;-58
2022/02/16 06:52:54;;;;;;;2.07;1.80;;;9.60;99.90;;;;;;5032318;28;20197;-59
2022/02/16 06:55:21;;;;;;;2.00;1.80;;;9.60;99.90;;;;;;5024212;28;20649;-58
2022/02/16 06:57:48;;;;;;;2.43;1.77;;;9.60;99.90;;;;;;5019671;28;20259;-59
2022/02/16 07:00:16;;;;;;;3.03;2.73;;;9.60;99.90;;;;;;5012173;28;20263;-57
2022/02/16 07:02:47;;;;;;;2.53;2.03;;;9.60;99.90;;;;;;5016059;28;20202;-57
2022/02/16 07:05:16;;;;;;;2.43;2.00;;;9.70;99.90;;;;;;5022084;28;20218;-58
2022/02/16 07:07:43;;;;;;;2.30;2.00;;;9.70;99.90;;;;;;5024827;28;20339;-58
2022/02/16 07:10:10;;;;;;;3.83;2.77;;;9.70;99.90;;;;;;5014332;28;20502;-58
2022/02/16 07:12:38;;;;;;;2.60;2.40;;;9.80;99.90;;;;;;5021250;28;21969;-59
2022/02/16 07:15:11;;;;;;;2.57;2.20;;;9.70;99.90;;;;;;5018712;28;20228;-59
2022/02/16 07:17:41;;;;;;;3.03;2.27;;;9.80;99.90;;;;;;5022651;28;20246;-60
2022/02/16 07:20:14;;;;;;;3.20;2.90;;;9.80;99.90;;;;;;5015361;28;20904;-59
2022/02/16 07:22:46;;;;;;;4.80;2.57;;;9.80;99.90;;;;;;5027440;28;20720;-58
2022/02/16 07:25:15;;;;;;;2.70;2.27;;;9.80;99.90;;;;;;5013331;28;20207;-58
2022/02/16 07:28:04;;;;;;;4.03;2.60;;;9.90;99.90;;;;;;5027729;28;20627;-58
2022/02/16 07:30:31;;;;;;;3.00;2.40;;;9.90;99.90;;;;;;5022911;28;20591;-59
2022/02/16 07:32:58;;;;;;;3.00;2.70;;;9.90;99.90;;;;;;5025235;28;20208;-58
2022/02/16 07:35:25;;;;;;;2.83;2.50;;;9.90;99.90;;;;;;5009727;28;20213;-58
2022/02/16 07:37:53;;;;;;;2.40;2.20;;;9.90;99.90;;;;;;5021769;28;20291;-58
2022/02/16 07:40:20;;;;;;;2.40;2.00;;;9.90;99.90;;;;;;5024279;28;20214;-58
2022/02/16 07:42:47;;;;;;;3.67;2.63;;;10.00;99.90;;;;;;5025727;28;20231;-57
2022/02/16 07:45:14;;;;;;;2.43;2.17;;;10.00;99.90;;;;;;5021997;28;20606;-58
2022/02/16 07:47:40;;;;;;;4.40;2.13;;;10.00;99.90;;;;;;5027916;28;20265;-57
2022/02/16 07:50:08;;;;;;;2.43;2.23;;;10.10;99.90;;;;;;5027693;28;20330;-57
2022/02/16 07:52:36;;;;;;;2.80;2.00;;;10.00;99.90;;;;;;5039215;28;20243;-58
2022/02/16 07:55:03;;;;;;;2.97;2.10;;;10.10;99.90;;;;;;5024889;28;20366;-57
2022/02/16 07:57:32;;;;;;;2.20;1.90;;;10.10;99.90;;;;;;5013611;28;20517;-57
2022/02/16 07:59:59;;;;;;;2.67;2.47;;;10.10;99.90;;;;;;5017430;28;20548;-58
2022/02/16 08:02:26;;;;;;;2.83;2.40;;;10.10;99.90;;;;;;5013467;28;20574;-57
2022/02/16 08:04:53;;;;;;;2.93;2.47;;;10.10;99.90;;;;;;5020131;28;20203;-58
2022/02/16 08:07:19;;;;;;;3.43;2.50;;;10.20;99.90;;;;;;5020813;28;20611;-57
2022/02/16 08:09:47;;;;;;;2.37;2.10;;;10.20;99.90;;;;;;5008671;28;21139;-57
2022/02/16 08:12:14;;;;;;;3.30;3.00;;;10.20;99.90;;;;;;5022267;28;20204;-58
2022/02/16 08:14:41;;;;;;;3.50;2.83;;;10.20;99.90;;;;;;5016086;28;20217;-58
2022/02/16 08:17:08;;;;;;;3.50;3.10;;;10.20;99.90;;;;;;5019099;28;20727;-58
2022/02/16 08:19:36;;;;;;;3.20;2.90;;;10.30;99.90;;;;;;5017718;28;20568;-58
2022/02/16 08:22:04;;;;;;;3.70;3.00;;;10.30;99.90;;;;;;5014385;28;20558;-58
2022/02/16 08:24:31;;;;;;;3.93;2.97;;;10.30;99.90;;;;;;5018720;28;20664;-58
2022/02/16 08:26:59;;;;;;;3.60;3.20;;;10.30;99.90;;;;;;5023608;28;20236;-58
2022/02/16 08:29:26;;;;;;;3.90;3.37;;;10.40;99.90;;;;;;5018449;28;20285;-57
2022/02/16 08:31:55;;;;;;;4.23;3.47;;;10.40;99.90;;;;;;5028769;28;20250;-56
2022/02/16 08:34:22;;;;;;;4.33;3.87;;;10.40;99.90;;;;;;5024275;28;20200;-57
2022/02/16 08:36:55;;;;;;;4.80;3.87;;;10.40;99.90;;;;;;5021344;28;20203;-57
2022/02/16 08:39:26;;;;;;;4.10;3.70;;;10.40;99.90;;;;;;5017776;28;20257;-58
2022/02/16 08:41:54;;;;;;;6.03;4.10;;;10.40;99.90;;;;;;5022842;28;20199;-57
2022/02/16 08:44:21;;;;;;;5.73;3.73;;;10.40;99.90;;;;;;5023458;28;20288;-57
2022/02/16 08:46:49;;;;;;;4.90;3.97;;;10.50;99.90;;;;;;5024652;28;20315;-57
2022/02/16 08:49:17;;;;;;;4.87;3.43;;;10.50;99.90;;;;;;5040903;28;20202;-58
2022/02/16 08:51:44;;;;;;;4.80;4.30;;;10.50;99.90;;;;;;5024607;28;20600;-58
2022/02/16 08:54:11;;;;;;;6.50;4.47;;;10.50;99.90;;;;;;5013492;28;20245;-58
2022/02/16 08:56:43;;;;;;;5.37;4.17;;;10.50;99.90;;;;;;5018039;28;20228;-58
2022/02/16 08:59:09;;;;;;;4.57;4.07;;;10.50;99.90;;;;;;5014129;28;20220;-57
2022/02/16 09:01:36;;;;;;;4.63;4.07;;;10.60;99.90;;;;;;5016553;28;20295;-59
2022/02/16 09:04:05;;;;;;;6.13;4.47;;;10.60;99.90;;;;;;5018812;28;20200;-59
2022/02/16 09:06:33;;;;;;;4.97;4.47;;;10.60;99.90;;;;;;5020266;28;20226;-58
2022/02/16 09:09:01;;;;;;;4.40;3.87;;;10.70;99.90;;;;;;5015241;28;20238;-58
2022/02/16 09:11:29;;;;;;;4.47;3.93;;;10.60;99.90;;;;;;5018852;28;20798;-56
2022/02/16 09:13:59;;;;;;;5.17;4.37;;;10.70;99.90;;;;;;5019930;28;20610;-59
2022/02/16 09:16:26;;;;;;;4.00;3.60;;;10.70;99.90;;;;;;5021564;28;20210;-63
2022/02/16 09:18:53;;;;;;;4.67;4.17;;;10.70;99.90;;;;;;5018248;28;20382;-57
2022/02/16 09:21:21;;;;;;;4.50;3.97;;;10.70;99.90;;;;;;5008697;28;20246;-57
2022/02/16 09:23:49;;;;;;;4.33;3.93;;;10.70;99.90;;;;;;5017015;28;20391;-57
2022/02/16 09:26:16;;;;;;;5.00;4.30;;;10.80;99.90;;;;;;5024848;28;20239;-59
2022/02/16 09:28:43;;;;;;;4.67;4.10;;;10.80;99.90;;;;;;5015947;28;20251;-57
2022/02/16 09:31:10;;;;;;;4.33;3.93;;;10.80;99.90;;;;;;5017965;28;20227;-58
2022/02/16 09:33:37;;;;;;;5.27;4.03;;;10.90;99.90;;;;;;5025192;28;20795;-57
2022/02/16 09:36:04;;;;;;;4.23;3.60;;;10.90;99.90;;;;;;5018935;28;20227;-57
2022/02/16 09:38:31;;;;;;;4.67;3.70;;;10.90;99.90;;;;;;5017132;28;21958;-59
2022/02/16 09:40:57;;;;;;;3.63;3.33;;;11.00;99.90;;;;;;5020924;28;20290;-57
2022/02/16 09:43:24;;;;;;;5.97;4.03;;;11.00;99.90;;;;;;5016298;28;20234;-57
2022/02/16 09:45:57;;;;;;;4.70;3.80;;;11.10;99.90;;;;;;5017207;28;20207;-58
2022/02/16 09:48:25;;;;;;;5.07;3.43;;;11.10;99.90;;;;;;5022563;28;20207;-57
2022/02/16 09:50:53;;;;;;;4.83;3.10;;;11.20;99.90;;;;;;5021471;28;20214;-57
2022/02/16 09:53:31;;;;;;;5.07;4.00;;;11.20;99.90;;;;;;5023399;28;20621;-57
2022/02/16 09:56:03;;;;;;;4.70;3.60;;;11.30;99.90;;;;;;5035507;28;20805;-58
2022/02/16 09:58:31;;;;;;;7.77;3.47;;;11.30;99.90;;;;;;5023751;28;20715;-57
2022/02/16 10:01:12;;;;;;;5.23;3.60;;;11.40;99.90;;;;;;5023241;28;20208;-57
2022/02/16 10:03:57;;;;;;;5.93;3.93;;;11.40;99.90;;;;;;5022029;28;20235;-57
2022/02/16 10:06:37;;;;;;;4.87;3.40;;;11.50;99.90;;;;;;5022246;28;20192;-58
2022/02/16 10:09:05;;;;;;;6.20;3.17;;;11.60;99.90;;;;;;5032914;28;20218;-58
2022/02/16 10:11:33;;;;;;;6.33;3.60;;;11.60;99.90;;;;;;5016829;28;20945;-58
2022/02/16 10:14:20;;;;;;;8.23;4.00;;;11.70;99.90;;;;;;5020088;28;20658;-57
2022/02/16 10:16:47;;;;;;;6.67;3.60;;;11.70;99.90;;;;;;5014213;28;20208;-58
2022/02/16 10:19:14;;;;;;;5.83;3.73;;;11.80;99.90;;;;;;5020290;28;20291;-58
2022/02/16 10:22:02;;;;;;;6.57;3.90;;;11.80;99.90;;;;;;5027251;28;20318;-58
2022/02/16 10:24:29;;;;;;;8.03;4.03;;;11.90;99.90;;;;;;5015806;28;20411;-57
2022/02/16 10:26:59;;;;;;;5.97;3.60;;;11.90;99.90;;;;;;5022623;28;22078;-57
2022/02/16 10:29:29;;;;;;;6.80;3.43;;;11.90;99.90;;;;;;5020813;28;20280;-57
2022/02/16 10:31:58;;;;;;;6.90;3.67;;;11.90;99.90;;;;;;5016289;28;20658;-58
2022/02/16 10:34:54;;;;;;;8.27;3.60;;;12.00;99.90;;;;;;5016736;28;20205;-57
2022/02/16 10:37:38;;;;;;;5.37;2.93;;;12.00;99.90;;;;;;5015524;28;20312;-60
2022/02/16 10:40:12;;;;;;;5.50;3.07;;;12.10;99.90;;;;;;5019430;28;20246;-62
2022/02/16 10:42:54;;;;;;;7.13;3.13;;;12.10;99.90;;;;;;5006640;28;20203;-61
2022/02/16 10:45:22;;;;;;;4.63;3.13;;;12.10;99.90;;;;;;5016090;28;20615;-62
2022/02/16 10:47:52;;;;;;;7.87;3.50;;;12.20;99.90;;;;;;5016122;28;20727;-61
2022/02/16 10:50:25;;;;;;;6.80;3.63;;;12.10;99.90;;;;;;5024291;28;20457;-63
2022/02/16 10:52:58;;;;;;;7.13;3.73;;;12.20;99.90;;;;;;5016195;28;20292;-61
2022/02/16 10:55:46;;;;;;;7.73;4.17;;;12.20;99.90;;;;;;5031874;28;20585;-63
2022/02/16 10:58:25;;;;;;;11.53;4.60;;;12.10;99.90;;;;;;5013441;28;20590;-63
2022/02/16 11:00:56;;;;;;;11.20;5.17;;;12.10;99.90;;;;;;5024449;28;20216;-58
2022/02/16 11:03:31;;;;;;;8.40;4.83;;;12.20;99.90;;;;;;5015757;28;20297;-58
2022/02/16 11:06:01;;;;;;;10.53;5.00;;;12.20;99.90;;;;;;5015379;28;20710;-58
2022/02/16 11:08:31;;;;;;;11.90;5.87;;;12.20;99.90;;;;;;5012121;28;20246;-57
2022/02/16 11:11:19;;;;;;;12.13;5.73;;;12.20;99.90;;;;;;5017467;28;20726;-57
2022/02/16 11:13:52;;;;;;;9.57;5.10;;;12.20;99.90;;;;;;5015657;28;20571;-58
2022/02/16 11:16:20;;;;;;;10.13;5.00;;;12.30;99.90;;;;;;5014853;28;20216;-57
2022/02/16 11:18:51;;;;;;;8.77;4.47;;;12.30;99.90;;;;;;5017935;28;20217;-58
2022/02/16 11:21:21;;;;;;;10.40;5.73;;;12.30;99.90;;;;;;5017451;28;20205;-58
2022/02/16 11:23:53;;;;;;;9.77;4.50;;;12.30;99.90;;;;;;5016752;28;20211;-57
2022/02/16 11:26:31;;;;;;;11.80;5.20;;;12.30;99.90;;;;;;5018709;28;20549;-57
2022/02/16 11:28:59;;;;;;;11.97;4.47;;;12.40;99.90;;;;;;5022607;28;20220;-59
2022/02/16 11:31:37;;;;;;;8.97;4.97;;;12.40;99.90;;;;;;5012514;28;20205;-59
2022/02/16 11:34:22;;;;;;;8.90;4.80;;;12.40;99.90;;;;;;5020398;28;20229;-57
2022/02/16 11:36:52;;;;;;;8.57;4.13;;;12.40;99.90;;;;;;5020663;28;20622;-58
2022/02/16 11:39:41;;;;;;;7.03;3.90;;;12.50;99.90;;;;;;5019779;28;20216;-58
2022/02/16 11:42:13;;;;;;;7.57;3.67;;;12.40;99.90;;;;;;5018723;28;20218;-57
2022/02/16 11:44:52;;;;;;;12.03;4.50;;;12.40;99.90;;;;;;5020587;28;20984;-59
2022/02/16 11:47:35;;;;;;;8.53;5.03;;;12.40;99.90;;;;;;5024564;28;20282;-59
2022/02/16 11:50:14;;;;;;;11.40;5.17;;;12.40;99.90;;;;;;5014040;28;21148;-57
2022/02/16 11:52:50;;;;;;;7.27;4.43;;;12.50;99.90;;;;;;5018825;28;20607;-57
2022/02/16 11:55:25;;;;;;;8.37;5.13;;;12.50;99.90;;;;;;5013768;28;20311;-57
2022/02/16 11:57:53;;;;;;;10.23;4.70;;;12.50;99.90;;;;;;5022451;28;20240;-58
2022/02/16 12:00:23;;;;;;;10.30;5.03;;;12.50;99.90;;;;;;5010488;28;20290;-58
2022/02/16 12:02:56;;;;;;;8.73;4.50;;;12.50;99.90;;;;;;5016779;28;20325;-58
2022/02/16 12:05:53;;;;;;;8.60;4.47;;;12.50;99.90;;;;;;5012147;28;20197;-58
2022/02/16 12:08:36;;;;;;;8.30;4.90;;;12.50;99.90;;;;;;5014566;28;20645;-58
2022/02/16 12:11:05;;;;;;;10.17;4.77;;;12.50;99.90;;;;;;5011790;28;20200;-57
2022/02/16 12:13:38;;;;;;;9.47;4.87;;;12.50;99.90;;;;;;5013086;28;21524;-57
2022/02/16 12:16:06;;;;;;;14.57;4.53;;;12.50;99.90;;;;;;5017424;28;20313;-57
2022/02/16 12:18:35;;;;;;;9.03;5.03;;;12.50;99.90;;;;;;5010293;28;20325;-57
2022/02/16 12:21:02;;;;;;;8.20;4.07;;;12.60;99.90;;;;;;5028568;28;20600;-57
2022/02/16 12:23:29;;;;;;;11.37;4.53;;;12.60;99.90;;;;;;5022145;28;20646;-57
2022/02/16 12:26:09;;;;;;;7.03;3.80;;;12.60;99.90;;;;;;5025403;28;20208;-57
2022/02/16 12:28:54;;;;;;;8.67;3.60;;;12.70;99.90;;;;;;5022226;28;20231;-58
2022/02/16 12:31:27;;;;;;;9.63;3.80;;;12.70;99.90;;;;;;5020751;28;20606;-57
2022/02/16 12:34:01;;;;;;;10.40;3.27;;;12.70;99.90;;;;;;5017773;28;20788;-58
2022/02/16 12:36:29;;;;;;;8.50;3.53;;;12.70;99.90;;;;;;5022044;28;20203;-57
2022/02/16 12:38:58;;;;;;;9.87;3.97;;;12.70;99.90;;;;;;5022679;28;20312;-57
2022/02/16 12:41:25;;;;;;;6.70;3.00;;;12.80;99.90;;;;;;5026919;28;20308;-57
2022/02/16 12:43:57;;;;;;;6.37;3.17;;;12.80;99.90;;;;;;5023770;28;20279;-58
2022/02/16 12:46:27;;;;;;;10.80;3.50;;;12.80;99.90;;;;;;5022863;28;20228;-58
2022/02/16 12:48:55;;;;;;;7.70;2.87;;;12.80;99.90;;;;;;5021666;28;20239;-58
2022/02/16 12:51:27;;;;;;;8.73;2.97;;;12.80;99.90;;;;;;5021475;28;20778;-58
2022/02/16 12:53:57;;;;;;;11.57;3.97;;;12.80;99.90;;;;;;5017269;28;20315;-57
2022/02/16 12:56:25;;;;;;;10.93;4.00;;;12.80;99.90;;;;;;5025264;28;20236;-58
2022/02/16 12:58:52;;;;;;;13.13;4.20;;;12.80;99.90;;;;;;5020864;28;20706;-58
2022/02/16 13:01:30;;;;;;;9.23;3.73;;;12.90;99.90;;;;;;5022216;28;20280;-58